sensor_id;sensor_type;location;lat;lon;timestamp;pressure;altitude;pressure_sealevel;temperature;humidity
25238;BME280;13185;50.872;5.306;2023-01-16T00:01:20;99407.41;;;4.29;100.00
25238;BME280;13185;50.872;5.306;2023-01-16T00:03:45;99406.56;;;4.29;100.00
25238;BME280;13185;50.872;5.306;2023-01-16T00:06:12;99413.66;;;4.28;100.00
25238;BME280;13185;50.872;5.306;2023-01-16T00:08:37;99406.72;;;4.26;100.00
25238;BME280;13185;50.872;5.306;2023-01-16T00:11:03;99395.34;;;4.24;100.00
25238;BME280;13185;50.872;5.306;2023-01-16T00:13:28;99385.78;;;4.21;100.00
25238;BME280;13185;50.872;5.306;2023-01-16T00:15:54;99390.34;;;4.19;100.00
25238;BME280;13185;50.872;5.306;2023-01-16T00:18:19;99382.47;;;4.18;100.00
25238;BME280;13185;50.872;5.306;2023-01-16T00:20:46;99386.06;;;4.17;100.00
25238;BME280;13185;50.872;5.306;2023-01-16T00:23:12;99377.25;;;4.16;100.00
25238;BME280;13185;50.872;5.306;2023-01-16T00:25:42;99371.88;;;4.18;100.00
25238;BME280;13185;50.872;5.306;2023-01-16T00:28:09;99373.28;;;4.23;100.00
25238;BME280;13185;50.872;5.306;2023-01-16T00:30:34;99373.00;;;4.28;100.00
25238;BME280;13185;50.872;5.306;2023-01-16T00:33:00;99362.38;;;4.28;100.00
25238;BME280;13185;50.872;5.306;2023-01-16T00:35:26;99360.66;;;4.27;100.00
25238;BME280;13185;50.872;5.306;2023-01-16T00:37:52;99356.41;;;4.24;100.00
25238;BME280;13185;50.872;5.306;2023-01-16T00:40:19;99350.34;;;4.22;100.00
25238;BME280;13185;50.872;5.306;2023-01-16T00:42:44;99352.13;;;4.22;100.00
25238;BME280;13185;50.872;5.306;2023-01-16T00:45:10;99343.97;;;4.25;100.00
25238;BME280;13185;50.872;5.306;2023-01-16T00:47:36;99339.41;;;4.27;100.00
25238;BME280;13185;50.872;5.306;2023-01-16T00:50:02;99317.34;;;4.26;100.00
25238;BME280;13185;50.872;5.306;2023-01-16T00:52:27;99315.63;;;4.25;100.00
25238;BME280;13185;50.872;5.306;2023-01-16T00:54:53;99311.59;;;4.20;100.00
25238;BME280;13185;50.872;5.306;2023-01-16T00:57:18;99303.03;;;4.15;100.00
25238;BME280;13185;50.872;5.306;2023-01-16T00:59:44;99307.72;;;4.11;100.00
25238;BME280;13185;50.872;5.306;2023-01-16T01:02:09;99302.59;;;4.08;100.00
25238;BME280;13185;50.872;5.306;2023-01-16T01:04:35;99289.50;;;4.05;100.00
25238;BME280;13185;50.872;5.306;2023-01-16T01:07:00;99277.28;;;4.02;100.00
25238;BME280;13185;50.872;5.306;2023-01-16T01:09:26;99270.50;;;3.98;100.00
25238;BME280;13185;50.872;5.306;2023-01-16T01:11:51;99264.34;;;3.98;100.00
25238;BME280;13185;50.872;5.306;2023-01-16T01:14:16;99257.41;;;3.95;100.00
25238;BME280;13185;50.872;5.306;2023-01-16T01:16:42;99250.41;;;3.94;100.00
25238;BME280;13185;50.872;5.306;2023-01-16T01:19:07;99241.69;;;3.92;100.00
25238;BME280;13185;50.872;5.306;2023-01-16T01:21:33;99233.84;;;3.91;100.00
25238;BME280;13185;50.872;5.306;2023-01-16T01:23:58;99226.94;;;3.88;100.00
25238;BME280;13185;50.872;5.306;2023-01-16T01:26:24;99221.63;;;3.88;100.00
25238;BME280;13185;50.872;5.306;2023-01-16T01:28:49;99227.88;;;3.87;100.00
25238;BME280;13185;50.872;5.306;2023-01-16T01:31:15;99219.06;;;3.87;100.00
25238;BME280;13185;50.872;5.306;2023-01-16T01:33:41;99214.63;;;3.87;100.00
25238;BME280;13185;50.872;5.306;2023-01-16T01:36:07;99203.91;;;3.89;100.00
25238;BME280;13185;50.872;5.306;2023-01-16T01:38:33;99196.91;;;3.88;100.00
25238;BME280;13185;50.872;5.306;2023-01-16T01:40:59;99201.91;;;3.92;100.00
25238;BME280;13185;50.872;5.306;2023-01-16T01:43:43;99183.13;;;3.95;100.00
25238;BME280;13185;50.872;5.306;2023-01-16T01:46:25;99181.16;;;3.99;100.00
25238;BME280;13185;50.872;5.306;2023-01-16T01:48:58;99172.13;;;4.01;100.00
25238;BME280;13185;50.872;5.306;2023-01-16T01:51:31;99168.25;;;4.07;100.00
25238;BME280;13185;50.872;5.306;2023-01-16T01:54:13;99160.19;;;4.09;100.00
25238;BME280;13185;50.872;5.306;2023-01-16T01:56:57;99149.47;;;4.10;100.00
25238;BME280;13185;50.872;5.306;2023-01-16T01:59:28;99138.97;;;4.09;100.00
25238;BME280;13185;50.872;5.306;2023-01-16T02:01:55;99137.06;;;4.11;100.00
25238;BME280;13185;50.872;5.306;2023-01-16T02:04:29;99126.22;;;4.14;100.00
25238;BME280;13185;50.872;5.306;2023-01-16T02:06:59;99115.34;;;4.18;100.00
25238;BME280;13185;50.872;5.306;2023-01-16T02:09:27;99102.91;;;4.19;100.00
25238;BME280;13185;50.872;5.306;2023-01-16T02:12:09;99099.31;;;4.20;100.00
25238;BME280;13185;50.872;5.306;2023-01-16T02:14:39;99086.03;;;4.20;100.00
25238;BME280;13185;50.872;5.306;2023-01-16T02:17:09;99075.44;;;4.20;100.00
25238;BME280;13185;50.872;5.306;2023-01-16T02:42:32;98992.00;;;4.24;100.00
25238;BME280;13185;50.872;5.306;2023-01-16T02:50:27;98960.91;;;4.26;100.00
25238;BME280;13185;50.872;5.306;2023-01-16T02:53:17;98959.09;;;4.26;100.00
25238;BME280;13185;50.872;5.306;2023-01-16T02:55:54;98946.66;;;4.27;100.00
25238;BME280;13185;50.872;5.306;2023-01-16T02:58:22;98930.84;;;4.25;100.00
25238;BME280;13185;50.872;5.306;2023-01-16T03:00:52;98917.59;;;4.25;100.00
25238;BME280;13185;50.872;5.306;2023-01-16T03:03:40;98912.50;;;4.22;100.00
25238;BME280;13185;50.872;5.306;2023-01-16T03:08:52;98889.81;;;4.18;100.00
25238;BME280;13185;50.872;5.306;2023-01-16T03:11:25;98885.34;;;4.19;100.00
25238;BME280;13185;50.872;5.306;2023-01-16T03:14:00;98883.31;;;4.22;100.00
25238;BME280;13185;50.872;5.306;2023-01-16T03:16:37;98861.97;;;4.24;100.00
25238;BME280;13185;50.872;5.306;2023-01-16T03:25:09;98816.56;;;4.28;100.00
25238;BME280;13185;50.872;5.306;2023-01-16T03:33:39;98787.47;;;4.27;100.00
25238;BME280;13185;50.872;5.306;2023-01-16T03:36:22;98783.88;;;4.28;100.00
25238;BME280;13185;50.872;5.306;2023-01-16T03:38:51;98773.88;;;4.31;100.00
25238;BME280;13185;50.872;5.306;2023-01-16T03:41:20;98777.50;;;4.30;100.00
25238;BME280;13185;50.872;5.306;2023-01-16T03:43:50;98767.59;;;4.32;100.00
25238;BME280;13185;50.872;5.306;2023-01-16T03:46:28;98762.19;;;4.34;100.00
25238;BME280;13185;50.872;5.306;2023-01-16T03:49:08;98751.44;;;4.35;100.00
25238;BME280;13185;50.872;5.306;2023-01-16T03:51:42;98740.72;;;4.37;100.00
25238;BME280;13185;50.872;5.306;2023-01-16T03:57:10;98723.63;;;4.41;100.00
25238;BME280;13185;50.872;5.306;2023-01-16T03:59:39;98717.38;;;4.42;100.00
25238;BME280;13185;50.872;5.306;2023-01-16T04:05:00;98692.50;;;4.43;100.00
25238;BME280;13185;50.872;5.306;2023-01-16T04:07:41;98682.75;;;4.44;100.00
25238;BME280;13185;50.872;5.306;2023-01-16T04:10:26;98668.38;;;4.46;100.00
25238;BME280;13185;50.872;5.306;2023-01-16T04:12:56;98659.47;;;4.47;100.00
25238;BME280;13185;50.872;5.306;2023-01-16T04:15:25;98653.09;;;4.50;100.00
25238;BME280;13185;50.872;5.306;2023-01-16T04:17:52;98644.06;;;4.52;100.00
25238;BME280;13185;50.872;5.306;2023-01-16T04:20:18;98635.84;;;4.55;100.00
25238;BME280;13185;50.872;5.306;2023-01-16T04:22:48;98616.31;;;4.56;100.00
25238;BME280;13185;50.872;5.306;2023-01-16T04:25:15;98609.06;;;4.58;100.00
25238;BME280;13185;50.872;5.306;2023-01-16T04:27:41;98593.78;;;4.62;100.00
25238;BME280;13185;50.872;5.306;2023-01-16T04:30:07;98583.03;;;4.63;100.00
25238;BME280;13185;50.872;5.306;2023-01-16T04:32:33;98572.28;;;4.65;100.00
25238;BME280;13185;50.872;5.306;2023-01-16T04:34:59;98558.88;;;4.67;100.00
25238;BME280;13185;50.872;5.306;2023-01-16T04:37:24;98551.78;;;4.67;100.00
25238;BME280;13185;50.872;5.306;2023-01-16T04:39:50;98548.28;;;4.67;100.00
25238;BME280;13185;50.872;5.306;2023-01-16T04:42:15;98532.22;;;4.68;100.00
25238;BME280;13185;50.872;5.306;2023-01-16T04:44:42;98521.50;;;4.70;100.00
25238;BME280;13185;50.872;5.306;2023-01-16T04:47:07;98502.91;;;4.70;100.00
25238;BME280;13185;50.872;5.306;2023-01-16T04:49:33;98493.13;;;4.70;100.00
25238;BME280;13185;50.872;5.306;2023-01-16T04:51:58;98481.56;;;4.71;100.00
25238;BME280;13185;50.872;5.306;2023-01-16T04:54:24;98469.13;;;4.72;100.00
25238;BME280;13185;50.872;5.306;2023-01-16T04:56:50;98467.31;;;4.72;100.00
25238;BME280;13185;50.872;5.306;2023-01-16T04:59:15;98447.88;;;4.72;100.00
25238;BME280;13185;50.872;5.306;2023-01-16T05:01:41;98445.22;;;4.72;100.00
25238;BME280;13185;50.872;5.306;2023-01-16T05:04:09;98427.34;;;4.74;100.00
25238;BME280;13185;50.872;5.306;2023-01-16T05:06:35;98422.88;;;4.74;100.00
25238;BME280;13185;50.872;5.306;2023-01-16T05:09:02;98414.06;;;4.74;100.00
25238;BME280;13185;50.872;5.306;2023-01-16T05:11:28;98411.28;;;4.75;100.00
25238;BME280;13185;50.872;5.306;2023-01-16T05:13:54;98396.22;;;4.76;100.00
25238;BME280;13185;50.872;5.306;2023-01-16T05:16:19;98384.75;;;4.75;100.00
25238;BME280;13185;50.872;5.306;2023-01-16T05:18:45;98372.06;;;4.79;100.00
25238;BME280;13185;50.872;5.306;2023-01-16T05:21:10;98362.28;;;4.79;100.00
25238;BME280;13185;50.872;5.306;2023-01-16T05:23:36;98348.78;;;4.82;100.00
25238;BME280;13185;50.872;5.306;2023-01-16T05:26:03;98350.44;;;4.83;100.00
25238;BME280;13185;50.872;5.306;2023-01-16T05:28:29;98346.81;;;4.84;99.83
25238;BME280;13185;50.872;5.306;2023-01-16T05:30:54;98322.94;;;4.84;99.31
25238;BME280;13185;50.872;5.306;2023-01-16T05:33:23;98320.00;;;4.87;99.31
25238;BME280;13185;50.872;5.306;2023-01-16T05:35:55;98305.88;;;4.87;99.03
25238;BME280;13185;50.872;5.306;2023-01-16T05:38:21;98305.66;;;4.90;98.61
25238;BME280;13185;50.872;5.306;2023-01-16T05:40:47;98294.78;;;4.93;98.59
25238;BME280;13185;50.872;5.306;2023-01-16T05:43:13;98282.22;;;4.95;98.23
25238;BME280;13185;50.872;5.306;2023-01-16T05:45:39;98279.28;;;4.98;97.93
25238;BME280;13185;50.872;5.306;2023-01-16T05:48:04;98271.09;;;5.01;98.31
25238;BME280;13185;50.872;5.306;2023-01-16T05:50:30;98263.97;;;5.02;98.17
25238;BME280;13185;50.872;5.306;2023-01-16T05:52:56;98254.19;;;5.02;98.65
25238;BME280;13185;50.872;5.306;2023-01-16T05:55:22;98248.03;;;5.02;99.44
25238;BME280;13185;50.872;5.306;2023-01-16T05:57:48;98241.97;;;5.00;99.88
25238;BME280;13185;50.872;5.306;2023-01-16T06:00:13;98233.28;;;4.98;100.00
25238;BME280;13185;50.872;5.306;2023-01-16T06:02:39;98227.41;;;4.94;100.00
25238;BME280;13185;50.872;5.306;2023-01-16T06:05:05;98223.06;;;4.93;100.00
25238;BME280;13185;50.872;5.306;2023-01-16T06:07:31;98217.75;;;4.93;100.00
25238;BME280;13185;50.872;5.306;2023-01-16T06:09:56;98198.44;;;4.91;100.00
25238;BME280;13185;50.872;5.306;2023-01-16T06:12:22;98196.78;;;4.90;100.00
25238;BME280;13185;50.872;5.306;2023-01-16T06:14:47;98177.31;;;4.89;100.00
25238;BME280;13185;50.872;5.306;2023-01-16T06:17:13;98171.28;;;4.87;100.00
25238;BME280;13185;50.872;5.306;2023-01-16T06:19:42;98175.91;;;4.85;100.00
25238;BME280;13185;50.872;5.306;2023-01-16T06:22:11;98150.59;;;4.81;100.00
25238;BME280;13185;50.872;5.306;2023-01-16T06:24:38;98141.78;;;4.81;100.00
25238;BME280;13185;50.872;5.306;2023-01-16T06:27:04;98133.81;;;4.81;100.00
25238;BME280;13185;50.872;5.306;2023-01-16T06:29:29;98139.97;;;4.81;100.00
25238;BME280;13185;50.872;5.306;2023-01-16T06:31:55;98125.00;;;4.80;100.00
25238;BME280;13185;50.872;5.306;2023-01-16T06:34:20;98117.28;;;4.77;100.00
25238;BME280;13185;50.872;5.306;2023-01-16T06:36:46;98107.63;;;4.76;100.00
25238;BME280;13185;50.872;5.306;2023-01-16T06:39:14;98097.97;;;4.75;100.00
25238;BME280;13185;50.872;5.306;2023-01-16T06:41:40;98080.38;;;4.74;100.00
25238;BME280;13185;50.872;5.306;2023-01-16T06:44:05;98076.16;;;4.72;100.00
25238;BME280;13185;50.872;5.306;2023-01-16T06:46:31;98065.69;;;4.70;100.00
25238;BME280;13185;50.872;5.306;2023-01-16T06:48:57;98061.22;;;4.71;100.00
25238;BME280;13185;50.872;5.306;2023-01-16T06:51:22;98055.16;;;4.69;100.00
25238;BME280;13185;50.872;5.306;2023-01-16T06:53:48;98050.00;;;4.67;100.00
25238;BME280;13185;50.872;5.306;2023-01-16T06:56:13;98044.81;;;4.66;100.00
25238;BME280;13185;50.872;5.306;2023-01-16T06:58:39;98030.00;;;4.63;100.00
25238;BME280;13185;50.872;5.306;2023-01-16T07:01:05;98037.00;;;4.64;100.00
25238;BME280;13185;50.872;5.306;2023-01-16T07:03:32;98008.78;;;4.63;100.00
25238;BME280;13185;50.872;5.306;2023-01-16T07:05:57;98007.22;;;4.60;100.00
25238;BME280;13185;50.872;5.306;2023-01-16T07:08:23;98008.06;;;4.61;100.00
25238;BME280;13185;50.872;5.306;2023-01-16T07:10:58;98007.09;;;4.62;100.00
25238;BME280;13185;50.872;5.306;2023-01-16T07:13:24;98005.41;;;4.61;100.00
25238;BME280;13185;50.872;5.306;2023-01-16T07:15:53;98000.94;;;4.61;100.00
25238;BME280;13185;50.872;5.306;2023-01-16T07:18:38;97982.59;;;4.58;100.00
25238;BME280;13185;50.872;5.306;2023-01-16T07:21:25;97978.28;;;4.57;100.00
25238;BME280;13185;50.872;5.306;2023-01-16T07:24:12;97967.78;;;4.56;100.00
25238;BME280;13185;50.872;5.306;2023-01-16T07:26:41;97966.69;;;4.58;100.00
25238;BME280;13185;50.872;5.306;2023-01-16T07:29:08;97966.81;;;4.57;100.00
25238;BME280;13185;50.872;5.306;2023-01-16T07:31:34;97953.53;;;4.57;100.00
25238;BME280;13185;50.872;5.306;2023-01-16T07:34:00;97955.34;;;4.56;100.00
25238;BME280;13185;50.872;5.306;2023-01-16T07:36:25;97951.88;;;4.56;100.00
25238;BME280;13185;50.872;5.306;2023-01-16T07:38:51;97947.25;;;4.58;100.00
25238;BME280;13185;50.872;5.306;2023-01-16T07:41:16;97946.41;;;4.57;100.00
25238;BME280;13185;50.872;5.306;2023-01-16T07:43:42;97945.56;;;4.57;99.74
25238;BME280;13185;50.872;5.306;2023-01-16T07:46:07;97945.84;;;4.54;100.00
25238;BME280;13185;50.872;5.306;2023-01-16T07:48:33;97935.50;;;4.51;99.51
25238;BME280;13185;50.872;5.306;2023-01-16T07:50:59;97927.78;;;4.48;99.87
25238;BME280;13185;50.872;5.306;2023-01-16T07:53:27;97921.78;;;4.46;100.00
25238;BME280;13185;50.872;5.306;2023-01-16T07:56:00;97914.22;;;4.41;99.83
25238;BME280;13185;50.872;5.306;2023-01-16T07:58:33;97912.69;;;4.39;99.12
25238;BME280;13185;50.872;5.306;2023-01-16T08:00:59;97904.97;;;4.35;99.15
25238;BME280;13185;50.872;5.306;2023-01-16T08:03:25;97900.78;;;4.33;98.70
25238;BME280;13185;50.872;5.306;2023-01-16T08:05:55;97906.09;;;4.33;98.93
25238;BME280;13185;50.872;5.306;2023-01-16T08:08:21;97907.19;;;4.30;98.27
25238;BME280;13185;50.872;5.306;2023-01-16T08:10:46;97885.28;;;4.28;98.10
25238;BME280;13185;50.872;5.306;2023-01-16T08:13:12;97884.69;;;4.25;98.26
25238;BME280;13185;50.872;5.306;2023-01-16T08:15:37;97885.66;;;4.24;97.86
25238;BME280;13185;50.872;5.306;2023-01-16T08:18:03;97880.47;;;4.22;98.46
25238;BME280;13185;50.872;5.306;2023-01-16T08:20:28;97891.22;;;4.21;97.98
25238;BME280;13185;50.872;5.306;2023-01-16T08:22:54;97877.41;;;4.17;98.14
25238;BME280;13185;50.872;5.306;2023-01-16T08:25:23;97884.38;;;4.18;98.00
25238;BME280;13185;50.872;5.306;2023-01-16T08:27:48;97868.72;;;4.15;97.82
25238;BME280;13185;50.872;5.306;2023-01-16T08:30:15;97875.81;;;4.15;97.80
25238;BME280;13185;50.872;5.306;2023-01-16T08:32:41;97878.25;;;4.18;98.13
25238;BME280;13185;50.872;5.306;2023-01-16T08:35:27;97876.53;;;4.17;98.17
25238;BME280;13185;50.872;5.306;2023-01-16T08:37:53;97874.84;;;4.16;97.83
25238;BME280;13185;50.872;5.306;2023-01-16T08:40:19;97869.69;;;4.14;97.86
25238;BME280;13185;50.872;5.306;2023-01-16T08:42:45;97853.06;;;4.12;97.95
25238;BME280;13185;50.872;5.306;2023-01-16T08:45:29;97867.03;;;4.14;97.97
25238;BME280;13185;50.872;5.306;2023-01-16T08:48:24;97868.84;;;4.14;97.87
25238;BME280;13185;50.872;5.306;2023-01-16T08:51:15;97864.38;;;4.14;97.80
25238;BME280;13185;50.872;5.306;2023-01-16T08:53:47;97852.78;;;4.15;98.15
25238;BME280;13185;50.872;5.306;2023-01-16T08:56:13;97842.03;;;4.17;98.46
25238;BME280;13185;50.872;5.306;2023-01-16T08:58:38;97836.50;;;4.20;98.83
25238;BME280;13185;50.872;5.306;2023-01-16T09:01:04;97830.59;;;4.16;98.05
25238;BME280;13185;50.872;5.306;2023-01-16T09:03:30;97824.34;;;4.17;98.49
25238;BME280;13185;50.872;5.306;2023-01-16T09:05:55;97823.47;;;4.17;98.72
25238;BME280;13185;50.872;5.306;2023-01-16T09:08:21;97824.44;;;4.16;99.02
25238;BME280;13185;50.872;5.306;2023-01-16T09:10:55;97819.44;;;4.13;99.06
25238;BME280;13185;50.872;5.306;2023-01-16T09:13:39;97802.41;;;4.15;99.38
25238;BME280;13185;50.872;5.306;2023-01-16T09:16:15;97799.19;;;4.12;99.48
25238;BME280;13185;50.872;5.306;2023-01-16T09:18:41;97797.78;;;4.08;99.21
25238;BME280;13185;50.872;5.306;2023-01-16T09:21:06;97795.13;;;4.08;99.63
25238;BME280;13185;50.872;5.306;2023-01-16T09:23:32;97795.13;;;4.08;99.92
25238;BME280;13185;50.872;5.306;2023-01-16T09:25:57;97796.66;;;4.10;99.95
25238;BME280;13185;50.872;5.306;2023-01-16T09:28:22;97794.56;;;4.14;100.00
25238;BME280;13185;50.872;5.306;2023-01-16T09:30:50;97791.25;;;4.21;100.00
25238;BME280;13185;50.872;5.306;2023-01-16T09:33:16;97782.38;;;4.32;100.00
25238;BME280;13185;50.872;5.306;2023-01-16T09:35:41;97781.28;;;4.44;100.00
25238;BME280;13185;50.872;5.306;2023-01-16T09:38:12;97772.50;;;4.53;100.00
25238;BME280;13185;50.872;5.306;2023-01-16T09:40:38;97777.00;;;4.62;99.86
25238;BME280;13185;50.872;5.306;2023-01-16T09:45:58;97765.94;;;4.67;99.14
25238;BME280;13185;50.872;5.306;2023-01-16T09:48:30;97768.34;;;4.70;98.56
25238;BME280;13185;50.872;5.306;2023-01-16T09:51:10;97772.41;;;4.74;98.58
25238;BME280;13185;50.872;5.306;2023-01-16T09:53:55;97759.13;;;4.74;98.06
25238;BME280;13185;50.872;5.306;2023-01-16T09:56:44;97752.84;;;4.75;97.70
25238;BME280;13185;50.872;5.306;2023-01-16T09:59:39;97747.53;;;4.75;97.16
25238;BME280;13185;50.872;5.306;2023-01-16T10:04:34;97740.69;;;4.82;97.68
25238;BME280;13185;50.872;5.306;2023-01-16T10:13:04;97726.44;;;4.93;97.19
25238;BME280;13185;50.872;5.306;2023-01-16T10:24:18;97713.00;;;5.24;96.81
25238;BME280;13185;50.872;5.306;2023-01-16T10:29:33;97702.22;;;5.25;95.49
25238;BME280;13185;50.872;5.306;2023-01-16T10:32:30;97698.97;;;5.31;96.11
25238;BME280;13185;50.872;5.306;2023-01-16T10:35:16;97684.28;;;5.37;96.15
25238;BME280;13185;50.872;5.306;2023-01-16T10:37:45;97678.13;;;5.46;96.32
25238;BME280;13185;50.872;5.306;2023-01-16T10:40:19;97677.09;;;5.57;96.42
25238;BME280;13185;50.872;5.306;2023-01-16T10:42:49;97671.47;;;5.60;94.57
25238;BME280;13185;50.872;5.306;2023-01-16T10:45:37;97670.22;;;5.64;94.61
25238;BME280;13185;50.872;5.306;2023-01-16T10:48:21;97661.13;;;5.66;94.38
25238;BME280;13185;50.872;5.306;2023-01-16T10:51:08;97645.53;;;5.71;94.50
25238;BME280;13185;50.872;5.306;2023-01-16T10:53:35;97656.75;;;5.75;93.95
25238;BME280;13185;50.872;5.306;2023-01-16T10:56:02;97653.53;;;5.71;93.05
25238;BME280;13185;50.872;5.306;2023-01-16T10:58:36;97646.94;;;5.75;92.85
25238;BME280;13185;50.872;5.306;2023-01-16T11:01:05;97642.41;;;5.86;93.62
25238;BME280;13185;50.872;5.306;2023-01-16T11:03:38;97638.63;;;5.88;92.90
25238;BME280;13185;50.872;5.306;2023-01-16T11:08:36;97626.72;;;5.92;92.33
25238;BME280;13185;50.872;5.306;2023-01-16T11:11:02;97615.91;;;5.94;91.88
25238;BME280;13185;50.872;5.306;2023-01-16T11:13:28;97613.84;;;5.88;91.91
25238;BME280;13185;50.872;5.306;2023-01-16T11:16:22;97601.97;;;5.82;92.16
25238;BME280;13185;50.872;5.306;2023-01-16T11:19:20;97605.03;;;5.87;92.42
25238;BME280;13185;50.872;5.306;2023-01-16T11:21:55;97586.38;;;5.97;93.22
25238;BME280;13185;50.872;5.306;2023-01-16T11:24:31;97588.81;;;6.08;92.76
25238;BME280;13185;50.872;5.306;2023-01-16T11:26:59;97571.81;;;6.19;92.30
25238;BME280;13185;50.872;5.306;2023-01-16T11:29:28;97576.44;;;6.34;92.36
25238;BME280;13185;50.872;5.306;2023-01-16T11:32:03;97572.66;;;6.37;90.10
25238;BME280;13185;50.872;5.306;2023-01-16T11:34:45;97560.19;;;6.38;90.53
25238;BME280;13185;50.872;5.306;2023-01-16T11:37:14;97555.38;;;6.41;90.23
25238;BME280;13185;50.872;5.306;2023-01-16T11:39:47;97548.63;;;6.47;90.29
25238;BME280;13185;50.872;5.306;2023-01-16T11:42:13;97549.44;;;6.47;90.09
25238;BME280;13185;50.872;5.306;2023-01-16T11:44:59;97534.34;;;6.56;89.62
25238;BME280;13185;50.872;5.306;2023-01-16T11:47:51;97533.22;;;6.58;88.48
25238;BME280;13185;50.872;5.306;2023-01-16T11:50:36;97519.53;;;6.53;88.49
25238;BME280;13185;50.872;5.306;2023-01-16T11:53:02;97517.94;;;6.60;88.48
25238;BME280;13185;50.872;5.306;2023-01-16T11:55:39;97518.00;;;6.69;88.65
25238;BME280;13185;50.872;5.306;2023-01-16T11:58:09;97513.41;;;6.79;88.26
25238;BME280;13185;50.872;5.306;2023-01-16T12:03:48;97504.69;;;6.77;86.46
25238;BME280;13185;50.872;5.306;2023-01-16T12:11:34;97493.31;;;6.66;87.32
25238;BME280;13185;50.872;5.306;2023-01-16T12:30:28;97468.88;;;6.19;92.42
25238;BME280;13185;50.872;5.306;2023-01-16T12:33:19;97458.16;;;6.11;92.21
25238;BME280;13185;50.872;5.306;2023-01-16T12:36:09;97467.38;;;5.99;92.50
25238;BME280;13185;50.872;5.306;2023-01-16T12:39:02;97460.00;;;5.93;92.92
25238;BME280;13185;50.872;5.306;2023-01-16T12:47:39;97443.78;;;5.86;93.73
25238;BME280;13185;50.872;5.306;2023-01-16T12:55:28;97421.47;;;5.97;93.69
25238;BME280;13185;50.872;5.306;2023-01-16T12:58:18;97427.00;;;6.03;93.71
25238;BME280;13185;50.872;5.306;2023-01-16T13:03:54;97412.09;;;5.93;92.70
25238;BME280;13185;50.872;5.306;2023-01-16T13:15:01;97400.34;;;5.95;93.26
25238;BME280;13185;50.872;5.306;2023-01-16T13:17:43;97396.22;;;6.01;93.24
25238;BME280;13185;50.872;5.306;2023-01-16T13:20:12;97390.13;;;6.08;93.95
25238;BME280;13185;50.872;5.306;2023-01-16T13:22:46;97389.81;;;6.12;93.71
25238;BME280;13185;50.872;5.306;2023-01-16T13:25:29;97382.06;;;6.18;93.92
25238;BME280;13185;50.872;5.306;2023-01-16T13:30:56;97387.38;;;6.18;93.00
25238;BME280;13185;50.872;5.306;2023-01-16T13:33:27;97386.84;;;6.15;93.02
25238;BME280;13185;50.872;5.306;2023-01-16T13:36:24;97380.00;;;6.12;93.41
25238;BME280;13185;50.872;5.306;2023-01-16T13:41:41;97377.66;;;6.09;93.50
25238;BME280;13185;50.872;5.306;2023-01-16T13:44:20;97378.84;;;6.15;93.96
25238;BME280;13185;50.872;5.306;2023-01-16T13:47:09;97376.56;;;6.20;94.19
25238;BME280;13185;50.872;5.306;2023-01-16T13:49:35;97378.13;;;6.30;94.29
25238;BME280;13185;50.872;5.306;2023-01-16T13:52:02;97377.97;;;6.32;93.96
25238;BME280;13185;50.872;5.306;2023-01-16T13:54:41;97383.31;;;6.32;94.14
25238;BME280;13185;50.872;5.306;2023-01-16T13:57:18;97380.84;;;6.39;94.49
25238;BME280;13185;50.872;5.306;2023-01-16T13:59:50;97375.00;;;6.35;93.74
25238;BME280;13185;50.872;5.306;2023-01-16T14:13:35;97380.00;;;6.12;92.35
25238;BME280;13185;50.872;5.306;2023-01-16T14:16:29;97375.16;;;6.07;92.50
25238;BME280;13185;50.872;5.306;2023-01-16T14:19:02;97378.00;;;6.06;92.63
25238;BME280;13185;50.872;5.306;2023-01-16T14:21:48;97369.31;;;6.04;92.58
25238;BME280;13185;50.872;5.306;2023-01-16T14:24:47;97361.66;;;6.01;92.54
25238;BME280;13185;50.872;5.306;2023-01-16T14:27:24;97367.59;;;5.95;92.10
25238;BME280;13185;50.872;5.306;2023-01-16T14:29:58;97367.44;;;5.96;92.51
25238;BME280;13185;50.872;5.306;2023-01-16T14:32:26;97368.13;;;5.98;92.54
25238;BME280;13185;50.872;5.306;2023-01-16T14:35:01;97372.66;;;5.88;92.10
25238;BME280;13185;50.872;5.306;2023-01-16T14:37:42;97373.50;;;5.89;92.22
25238;BME280;13185;50.872;5.306;2023-01-16T14:42:39;97379.13;;;5.86;93.04
25238;BME280;13185;50.872;5.306;2023-01-16T14:45:28;97380.81;;;5.87;93.93
25238;BME280;13185;50.872;5.306;2023-01-16T14:56:40;97382.06;;;5.83;95.22
25238;BME280;13185;50.872;5.306;2023-01-16T14:59:23;97381.25;;;5.82;95.38
25238;BME280;13185;50.872;5.306;2023-01-16T15:01:59;97387.41;;;5.83;95.53
25238;BME280;13185;50.872;5.306;2023-01-16T15:07:31;97382.56;;;5.78;95.52
25238;BME280;13185;50.872;5.306;2023-01-16T15:10:03;97374.06;;;5.74;95.87
25238;BME280;13185;50.872;5.306;2023-01-16T15:12:40;97384.69;;;5.74;95.97
25238;BME280;13185;50.872;5.306;2023-01-16T15:15:19;97378.38;;;5.75;95.99
25238;BME280;13185;50.872;5.306;2023-01-16T15:17:45;97383.16;;;5.72;96.15
25238;BME280;13185;50.872;5.306;2023-01-16T15:20:30;97371.31;;;5.66;96.35
25238;BME280;13185;50.872;5.306;2023-01-16T15:28:49;97377.16;;;5.70;97.28
25238;BME280;13185;50.872;5.306;2023-01-16T15:31:17;97371.16;;;5.68;97.48
25238;BME280;13185;50.872;5.306;2023-01-16T15:33:44;97379.47;;;5.65;97.69
25238;BME280;13185;50.872;5.306;2023-01-16T15:38:44;97373.47;;;5.63;98.13
25238;BME280;13185;50.872;5.306;2023-01-16T15:41:10;97372.59;;;5.62;98.37
25238;BME280;13185;50.872;5.306;2023-01-16T15:43:37;97369.28;;;5.60;98.63
25238;BME280;13185;50.872;5.306;2023-01-16T15:49:30;97371.94;;;5.60;99.20
25238;BME280;13185;50.872;5.306;2023-01-16T15:51:58;97377.25;;;5.60;99.31
25238;BME280;13185;50.872;5.306;2023-01-16T15:54:24;97375.72;;;5.58;99.63
25238;BME280;13185;50.872;5.306;2023-01-16T15:56:50;97372.41;;;5.56;99.76
25238;BME280;13185;50.872;5.306;2023-01-16T15:59:26;97378.53;;;5.56;100.00
25238;BME280;13185;50.872;5.306;2023-01-16T16:01:52;97383.03;;;5.56;100.00
25238;BME280;13185;50.872;5.306;2023-01-16T16:04:19;97382.88;;;5.57;100.00
25238;BME280;13185;50.872;5.306;2023-01-16T16:06:47;97381.06;;;5.58;100.00
25238;BME280;13185;50.872;5.306;2023-01-16T16:09:19;97376.41;;;5.60;100.00